• Join FlightAware (Why Join?)
  • Login
  • US Flag 
07:11AM EST


 

Airport Tracker/Info


-or-


 

Live Flight TrackerFlight Track Log ✈ N516QS ✈ 18-Apr-2013 ✈ KHPN - KIAD

Flight Track Log - Related Links

Times and Time Zones

All times are in EDT time to prevent confusion due to time zone crossing. See the N516QS flight status page for this flight to view local times or setup timezone preferences in your user account.

Time Position Orientation Groundspeed Altitude Reporting Facility
EDT Latitude Longitude Course Direction KTS MPH feet Rate Location/Type
01:53PM 41.0333 -73.7667 304° West 213 245 3,100  Level New York TRACON
01:54PM 41.0667 -73.8333 304° West 255 293 5,000 2,100 Climbing New York TRACON
01:55PM 41.0333 -73.9167 242° Southwest 226 260 7,300 2,143 Climbing New York TRACON
01:56PM 41.0000 -73.9833 236° Southwest 254 292 9,500 1,950 Climbing New York TRACON
01:57PM 40.9500 -74.0667 232° Southwest 296 341 11,200 2,000 Climbing New York TRACON
01:58PM 40.9000 -74.1667 237° Southwest 329 379 13,500 2,400 Climbing New York TRACON
01:59PM 40.8667 -74.2833 249° West 369 425 16,000 1,800 Climbing New York TRACON
02:00PM 40.8333 -74.4333 254° West 396 456 17,100 550 Climbing New York TRACON
02:01PM 40.8000 -74.5500 249° West 352 405 17,100  Level New York TRACON
02:03PM 40.7761 -74.6814 257° West 360 414 17,100  Level New York Center
02:04PM 40.7444 -74.8167 253° West 360 414 17,100 -102 Level New York Center
02:04PM 40.7150 -74.9408 253° West 355 409 16,900 102 Descending New York Center
02:05PM 40.6878 -75.0622 254° West 355 409 17,300 744 Climbing New York Center
02:06PM 40.6747 -75.1900 262° West 355 409 18,400 1,279 Climbing New York Center
02:08PM 40.6636 -75.3208 264° West 355 409 19,900 807 Climbing New York Center
02:08PM 40.6314 -75.4472 251° West 366 421 20,000 51 Climbing New York Center
02:09PM 40.5769 -75.5636 238° Southwest 366 421 20,000  Level New York Center
02:10PM 40.5119 -75.6683 231° Southwest 366 421 20,000  Level New York Center
02:11PM 40.4450 -75.7781 231° Southwest 385 443 20,000  Level New York Center
02:13PM 40.3756 -75.8875 230° Southwest 396 456 20,000  Level New York Center
02:13PM 40.3150 -75.9892 232° Southwest 396 456 20,000  Level New York Center
02:15PM 40.2389 -76.1058 230° Southwest 391 450 20,000 -446 Level New York Center
02:16PM 40.1714 -76.2119 230° Southwest 391 450 19,100 -1,017 Descending New York Center
02:16PM 40.1058 -76.3208 232° Southwest 386 444 18,000 -1,108 Descending New York Center
02:18PM 40.0333 -76.5000 242° Southwest 342 394 16,200 -1,132 Descending Potomac TRACON
02:19PM 39.9833 -76.6000 237° Southwest 339 390 15,000 -571 Descending Potomac TRACON
02:20PM 39.9167 -76.7167 233° Southwest 334 384 15,000  Level Potomac TRACON
02:21PM 39.8833 -76.8167 247° West 333 383 15,000 -94 Level Potomac TRACON
02:22PM 39.8333 -76.9333 241° Southwest 331 381 14,800 -661 Descending Potomac TRACON
02:23PM 39.7833 -77.0167 232° Southwest 312 359 13,600 -1,148 Descending Potomac TRACON
02:24PM 39.7333 -77.1167 237° Southwest 297 342 12,600 -1,043 Descending Potomac TRACON
02:25PM 39.7000 -77.2000 243° Southwest 289 333 11,600 -1,039 Descending Potomac TRACON
02:26PM 39.6500 -77.2833 232° Southwest 268 308 10,400 -762 Descending Potomac TRACON
02:27PM 39.5833 -77.3333 210° Southwest 232 267 10,000 -198 Descending Potomac TRACON
02:28PM 39.5667 -77.4167 255° West 227 261 10,000 -496 Level Potomac TRACON
02:29PM 39.5667 -77.4833 270° West 220 253 9,000 -1,286 Descending Potomac TRACON
02:30PM 39.5667 -77.5667 270° West 229 264 7,300 -1,587 Descending Potomac TRACON
02:31PM 39.5000 -77.5833 191° South 216 249 5,800 -1,252 Descending Potomac TRACON
02:32PM 39.4667 -77.5500 142° Southeast 227 261 4,900 -900 Descending Potomac TRACON
02:33PM 39.4500 -77.4833 108° East 205 236 4,000 -450 Descending Potomac TRACON
02:34PM 39.4000 -77.4333 142° Southeast 199 229 4,000  Level Potomac TRACON
02:35PM 39.3500 -77.4333 180° South 190 219 4,000  Level Potomac TRACON
02:36PM 39.3000 -77.4333 180° South 186 214 4,000 -248 Level Potomac TRACON
02:37PM 39.2500 -77.4333 180° South 166 191 3,500 -496 Descending Potomac TRACON
02:38PM 39.2000 -77.4333 180° South 172 198 3,000 -250 Descending Potomac TRACON
02:39PM 39.1500 -77.4333 180° South 155 178 3,000  Level Potomac TRACON
02:41PM 39.1167 -77.4333 180° South 153 176 3,000  Level Potomac TRACON